AirNav   Jet Aviation Boston
 
 941 users online  

CL35 Warner Springs Gliderport
Warner Springs, California, USA

GOING TO WARNER SPRINGS?


FAA INFORMATION EFFECTIVE 24 MAY 2018

Location

FAA Identifier: CL35
Lat/Long: 33-17-04.2100N / 116-40-10.7650W
33-17.070167N / 116-40.179417W
33.2845028 / -116.6696569
(estimated)
Elevation: 2880 ft. / 878 m (estimated)
Variation: 13E (1985)
From city: 2 miles E of WARNER SPRINGS, CA
Time zone: UTC -7 (UTC -8 during Standard Time)
Zip code: 92086

Gliderport Operations

Gliderport use: Private use. Permission required prior to landing
Activation date: 10/1984
Control tower: no
ARTCC: LOS ANGELES CENTER
FSS: SAN DIEGO FLIGHT SERVICE STATION
Attendance: 0900-1700
Wind indicator: yes
Segmented circle: yes
Landing fee: yes

Gliderport Communications

UNICOM: 122.8
WX AWOS-3 at L08 (18 nm E): 126.575 (760-767-3308)
WX ASOS at RNM (19 nm SW): 132.025 (760-789-0736)

Nearby radio navigation aids

VOR radial/distance  VOR name  Freq  Var
JLIr319/9.6JULIAN VORTAC114.0015E
TRMr218/32.8THERMAL VORTAC116.2013E
PSPr186/37.1PALM SPRINGS VORTAC115.5013E
OCNr071/37.6OCEANSIDE VORTAC115.3015E
HDFr125/(39.2)HOMELAND VOR113.4014E

Gliderport Services

Runway Information

Runway 8/26

Dimensions: 3500 x 70 ft. / 1067 x 21 m
Surface: asphalt
RUNWAY 8  RUNWAY 26
Latitude: 33-17.060333N33-17.080000N
Longitude: 116-40.522667W116-39.836167W
Elevation: 2873.0 ft.2914.0 ft.
Traffic pattern: leftleft
Obstructions: none200 ft. hill, 5200 ft. from runway

Gliderport Ownership and Management from official FAA records

Ownership: Privately-owned
Owner: WARNER SPRINGS RANCH RESORT, LLC
31930 HWY 79
WARNER SPRINGS, CA 92086
Phone 760-782-4200
SKY SAILING 31930 HWY 79.
Manager: BRET WILLAT
SKY SAILING 31930 HWY 79
WARNER SPRINGS, CA 92086
Phone 760-782-0404
LEASEE.

Gliderport Operational Statistics

Aircraft based on the field: 80
Single engine airplanes: 10
Gliders airplanes: 70
    

Instrument Procedures

There are no published instrument procedures at CL35.

Some nearby airports with instrument procedures:

L08 - Borrego Valley Airport (18 nm E)
KRNM - Ramona Airport (19 nm SW)
F70 - French Valley Airport (29 nm NW)
L18 - Fallbrook Community Airpark (29 nm W)
KSEE - Gillespie Field Airport (31 nm SW)
 
Loc | Ops | Rwys | IFR | FBO | Links
Com | Nav | Svcs | Stats | Notes

AirNav Hotels Sweepstakes
 
Area around CL35 (Warner Springs Gliderport)
 
Road maps at: MapQuest Bing Google
 
Aerial photo
WARNING: Photo may not be current or correct
Aerial photo of CL35 (Warner Springs Gliderport)
Photo by Steve Lupinacci
Photo taken 27-May-2008

Do you have a better or more recent aerial photo of Warner Springs Gliderport that you would like to share? If so, please send us your photo.

 
Sectional chart

 
Airport distance calculator
Flying to Warner Springs Gliderport? Find the distance to fly.

From to CL35

Sunrise and sunset
Times for 26-May-2018
 Local
(UTC-7)
 Zulu
(UTC)
Morning civil twilight05:1312:13
Sunrise05:4112:41
Sunset19:4602:46
Evening civil twilight20:1403:14

Current date and time
Zulu (UTC)  26-May-2018 17:27:08
Local (UTC-7)  26-May-2018 10:27:08
 
METAR
KRNM 
20nm SW 
261709Z 25005KT 10SM FEW020 SCT030 OVC036 16/10 A3003 RMK AO2 T01560100
KF70 
29nm NW 
261715Z AUTO 20005KT 10SM OVC032 16/07 A3003 RMK AO1
KL18 
29nm W 
261715Z AUTO 21003KT 10SM OVC039 16/10 A3004 RMK AO2
KSEE 
32nm SW 
261647Z 23008KT 10SM FEW026 OVC038 18/10 A3005
KCRQ 
32nm W 
261707Z 17007KT 10SM FEW023 17/11 A3002 RMK AO2 T01720106
KTRM 
33nm NE 
261652Z AUTO 33015KT 10SM CLR 26/07 A2985 RMK AO2 SLP109 T02610067
KPSP 
33nm N 
261653Z 34013G16KT 10SM 24/06 A2987 RMK AO2 SLP112 T02440061 $
KNFG 
33nm W 
252355Z AUTO 29012G19KT 10SM CLR 19/12 A3005 RMK AO2 SLP176 T01890117 10206 20189 58014
KNKX 
34nm SW 
261655Z 25006KT 10SM BKN026 OVC032 18/11 A3004 RMK AO2 SLP168 T01830106 $
KOKB 
34nm W 
261652Z AUTO 22005KT 10SM CLR 18/12 A3003 RMK AO2 SLP167 T01830117
TAF
KCRQ 
32nm W 
261455Z 2615/2712 27004KT P6SM SCT018 BKN040 FM261900 28010KT P6SM SCT025 FM270100 VRB05KT P6SM SCT015 FM270300 VRB03KT P6SM BKN015
KTRM 
33nm NE 
261120Z 2612/2712 34018G28KT P6SM SKC FM261600 33012G20KT P6SM SKC FM270100 33018G28KT P6SM SKC FM270900 33011KT P6SM SKC
KPSP 
33nm N 
261120Z 2612/2712 VRB05KT P6SM SKC FM261700 31015G25KT P6SM SKC FM262300 32020G30KT P6SM SKC FM270500 32012G22KT P6SM SKC FM270800 32008KT P6SM SKC
KNFG 
33nm W 
2603/2703 VRB05KT 9999 SCT045 QNH3005INS FM260730 VRB05KT 9999 BKN030 QNH3003INS BECMG 2619/2621 24010KT 9999 SKC QNH2997INS LAST NO AMDS AFT 2603 NEXT 2915 T13/2613Z T23/2621Z COR 0322
KNKX 
34nm SW 
2603/2703 VRB05KT 9999 SCT030 QNH3005INS FM260730 29008KT 9999 BKN035 QNH3002INS BECMG 2619/2621 28010KT 9999 SKC QNH2997INS LAST NO AMDS AFT 2603 NEXT 2915 T13/2613Z T23/2621Z COR 0322
NOTAMs
Click for the latest NOTAMs
NOTAMs are issued by the DoD/FAA and will open in a separate window not controlled by AirNav.

 

 
 

Would you like to see your business listed on this page?

 If your business provides an interesting product or service to pilots, flight crews, aircraft, or users of the Warner Springs Gliderport, you should consider listing it here.  To start the listing process, click on the button below
 
Add a business
 

Other Pages about Warner Springs Gliderport

www.agcsc.org/warner_springs_info.html
 
Update a link
 
Copyright © AirNav, LLC. All rights reserved. Privacy Policy  Contact